Time;durP1;ratioP1;P1;durP2;ratioP2;P2;SDS_P1;SDS_P2;PMS_P1;PMS_P2;Temp;Humidity;BMP_temperature;BMP_pressure;BME280_temperature;BME280_humidity;BME280_pressure;Samples;Min_cycle;Max_cycle;Signal;HPM_P1;HPM_P2
2022/07/15 00:01:34;;;;;;;9.05;2.30;;;25.30;55.60;;;;;;5058542;28;20199;-79
2022/07/15 00:04:02;;;;;;;4.93;2.17;;;25.20;55.70;;;;;;5054156;28;20194;-79
2022/07/15 00:06:31;;;;;;;7.32;2.28;;;25.20;55.90;;;;;;5062515;28;20187;-80
2022/07/15 00:08:59;;;;;;;3.80;2.10;;;25.20;56.00;;;;;;5045737;28;20759;-80
2022/07/15 00:11:28;;;;;;;5.82;2.22;;;25.10;56.10;;;;;;5058544;28;20869;-81
2022/07/15 00:13:56;;;;;;;10.27;2.85;;;25.10;56.20;;;;;;5059444;28;20205;-79
2022/07/15 00:16:31;;;;;;;7.03;2.83;;;25.10;56.30;;;;;;5064878;28;20197;-79
2022/07/15 00:19:00;;;;;;;6.55;2.63;;;25.10;56.40;;;;;;5060441;28;20190;-80
2022/07/15 00:21:29;;;;;;;5.35;2.55;;;25.00;56.40;;;;;;5072252;28;20197;-80
2022/07/15 00:23:58;;;;;;;7.03;2.38;;;25.00;56.60;;;;;;5065032;28;20194;-81
2022/07/15 00:26:27;;;;;;;8.50;2.53;;;25.10;56.80;;;;;;5066220;28;20206;-81
2022/07/15 00:29:01;;;;;;;5.10;2.35;;;25.00;57.00;;;;;;5055256;28;20192;-83
2022/07/15 00:31:31;;;;;;;6.22;2.53;;;25.00;57.00;;;;;;5071865;28;20233;-81
2022/07/15 00:34:00;;;;;;;7.68;2.95;;;25.00;57.30;;;;;;5061832;28;20183;-81
2022/07/15 00:36:28;;;;;;;7.32;3.53;;;24.90;57.20;;;;;;5058312;28;20541;-81
2022/07/15 00:38:57;;;;;;;5.40;2.75;;;24.90;57.30;;;;;;5070035;28;20209;-81
2022/07/15 00:41:25;;;;;;;7.43;2.65;;;24.90;57.40;;;;;;5062623;28;20193;-83
2022/07/15 00:43:54;;;;;;;7.97;3.20;;;24.90;57.60;;;;;;5052609;28;20197;-83
2022/07/15 00:46:23;;;;;;;5.57;2.50;;;24.80;57.70;;;;;;5069686;28;20198;-82
2022/07/15 00:48:53;;;;;;;8.80;2.38;;;24.80;57.70;;;;;;5052832;28;20198;-81
2022/07/15 00:51:21;;;;;;;8.57;2.70;;;24.80;57.80;;;;;;5065934;28;20198;-82
2022/07/15 00:53:50;;;;;;;12.07;2.92;;;24.80;57.80;;;;;;5057118;28;20676;-81
2022/07/15 00:56:21;;;;;;;8.35;2.35;;;24.80;58.00;;;;;;5068359;28;20199;-79
2022/07/15 00:58:52;;;;;;;7.45;2.55;;;24.80;58.00;;;;;;5050208;28;20812;-80
2022/07/15 01:01:21;;;;;;;5.95;2.78;;;24.80;58.10;;;;;;5059129;28;20203;-78
2022/07/15 01:03:50;;;;;;;7.32;2.20;;;24.80;58.10;;;;;;5060561;28;20745;-77
2022/07/15 01:06:20;;;;;;;9.35;2.60;;;24.80;58.20;;;;;;5065674;28;20552;-78
2022/07/15 01:08:51;;;;;;;6.13;2.75;;;24.70;58.20;;;;;;5061100;28;20187;-76
2022/07/15 01:11:20;;;;;;;9.57;2.67;;;24.70;58.30;;;;;;5049222;28;20645;-78
2022/07/15 01:13:49;;;;;;;4.60;2.30;;;24.60;58.40;;;;;;5059818;28;20608;-78
2022/07/15 01:16:17;;;;;;;4.38;1.95;;;24.60;58.40;;;;;;5063031;28;20202;-77
2022/07/15 01:18:45;;;;;;;7.63;1.92;;;24.60;58.40;;;;;;5066709;28;21105;-77
2022/07/15 01:21:16;;;;;;;8.35;2.28;;;24.60;58.40;;;;;;5052201;28;20252;-78
2022/07/15 01:23:44;;;;;;;3.70;1.60;;;24.60;58.40;;;;;;5054801;28;20201;-79
2022/07/15 01:26:13;;;;;;;5.80;2.38;;;24.60;58.40;;;;;;5070032;28;20694;-78
2022/07/15 01:28:42;;;;;;;3.80;1.80;;;24.60;58.50;;;;;;5071469;28;20190;-78
2022/07/15 01:31:10;;;;;;;3.63;1.85;;;24.50;58.50;;;;;;5049833;28;20868;-78
2022/07/15 01:33:39;;;;;;;6.70;1.95;;;24.50;58.40;;;;;;5057842;28;20202;-77
2022/07/15 01:36:08;;;;;;;4.40;2.00;;;24.50;58.50;;;;;;5055850;28;20211;-77
2022/07/15 01:38:38;;;;;;;5.03;2.17;;;24.50;58.40;;;;;;5059804;28;20187;-77
2022/07/15 01:41:17;;;;;;;3.83;1.92;;;24.50;58.50;;;;;;5059308;28;20202;-78
2022/07/15 01:43:45;;;;;;;4.32;2.00;;;24.40;58.40;;;;;;5067074;28;20191;-78
2022/07/15 01:46:14;;;;;;;3.58;2.10;;;24.50;58.40;;;;;;5055617;28;20210;-78
2022/07/15 01:51:29;;;;;;;4.35;2.00;;;24.40;58.50;;;;;;5044136;28;20190;-78
2022/07/15 01:53:59;;;;;;;3.17;1.60;;;24.30;58.40;;;;;;5068341;28;20195;-78
2022/07/15 01:56:27;;;;;;;8.40;1.70;;;24.30;58.50;;;;;;5066904;28;20190;-78
2022/07/15 01:58:56;;;;;;;4.35;1.50;;;24.30;58.50;;;;;;5062445;28;20197;-80
2022/07/15 02:01:25;;;;;;;4.47;1.88;;;24.30;58.50;;;;;;5050475;28;20687;-79
2022/07/15 02:03:54;;;;;;;3.25;1.50;;;24.30;58.60;;;;;;5060182;28;20754;-80
2022/07/15 02:06:23;;;;;;;3.15;1.42;;;24.30;58.80;;;;;;5059046;28;20193;-80
2022/07/15 02:08:51;;;;;;;2.83;1.70;;;24.30;58.70;;;;;;5055592;28;20194;-80
2022/07/15 02:11:21;;;;;;;3.42;1.40;;;24.30;58.90;;;;;;5055173;28;20202;-80
2022/07/15 02:13:49;;;;;;;4.82;1.42;;;24.20;58.90;;;;;;5050407;28;20186;-79
2022/07/15 02:16:18;;;;;;;9.15;1.98;;;24.20;58.90;;;;;;5050862;28;20671;-80
2022/07/15 02:18:46;;;;;;;4.18;1.40;;;24.20;58.90;;;;;;5058548;28;20286;-80
2022/07/15 02:21:15;;;;;;;5.93;2.03;;;24.20;59.00;;;;;;5061577;28;20222;-80
2022/07/15 02:23:44;;;;;;;2.72;1.50;;;24.20;58.90;;;;;;5062632;28;20907;-80
2022/07/15 02:26:12;;;;;;;7.72;1.60;;;24.20;59.00;;;;;;5057988;28;20553;-79
2022/07/15 02:28:42;;;;;;;3.97;1.48;;;24.10;59.10;;;;;;5061544;28;20198;-79
2022/07/15 02:31:11;;;;;;;4.22;2.25;;;24.10;59.00;;;;;;5059709;28;20191;-79
2022/07/15 02:33:40;;;;;;;5.18;1.58;;;24.00;59.10;;;;;;5060756;28;20197;-79
2022/07/15 02:36:09;;;;;;;6.22;1.50;;;24.10;59.10;;;;;;5062763;28;20707;-80
2022/07/15 02:38:38;;;;;;;3.97;1.60;;;24.00;59.20;;;;;;5060117;28;20197;-79
2022/07/15 02:41:06;;;;;;;2.90;1.40;;;24.00;59.20;;;;;;5058720;28;20225;-80
2022/07/15 02:43:36;;;;;;;3.70;1.45;;;24.00;59.40;;;;;;5067301;28;20209;-80
2022/07/15 02:46:06;;;;;;;4.05;1.77;;;23.90;59.50;;;;;;5046243;28;20225;-80
2022/07/15 02:48:34;;;;;;;7.00;1.55;;;23.90;59.80;;;;;;5052887;28;20182;-79
2022/07/15 02:51:03;;;;;;;8.20;2.08;;;23.90;60.00;;;;;;5055707;28;20194;-80
2022/07/15 02:53:31;;;;;;;5.05;1.70;;;23.80;60.10;;;;;;5060206;28;20198;-79
2022/07/15 02:56:00;;;;;;;3.13;1.67;;;23.80;60.30;;;;;;5064828;28;20191;-80
2022/07/15 02:58:31;;;;;;;6.03;1.67;;;23.70;60.40;;;;;;5069696;28;20197;-79
2022/07/15 03:00:59;;;;;;;4.30;2.08;;;23.70;60.50;;;;;;5060778;28;20217;-80
2022/07/15 03:03:29;;;;;;;4.20;1.58;;;23.70;60.60;;;;;;5047223;28;20289;-80
2022/07/15 03:05:59;;;;;;;6.40;1.67;;;23.70;60.60;;;;;;5057170;28;20195;-80
2022/07/15 03:08:28;;;;;;;3.70;1.73;;;23.70;60.60;;;;;;5057949;28;20198;-80
2022/07/15 03:10:56;;;;;;;4.78;2.20;;;23.70;60.70;;;;;;5057261;28;20190;-79
2022/07/15 03:13:25;;;;;;;3.70;1.48;;;23.70;60.80;;;;;;5056375;28;20999;-80
2022/07/15 03:15:53;;;;;;;3.25;1.40;;;23.70;61.00;;;;;;5051975;28;20191;-80
2022/07/15 03:18:22;;;;;;;6.78;1.73;;;23.70;61.10;;;;;;5055840;28;20290;-79
2022/07/15 03:20:52;;;;;;;3.28;1.58;;;23.70;61.20;;;;;;5060860;28;20691;-81
2022/07/15 03:23:21;;;;;;;2.83;1.20;;;23.60;61.30;;;;;;5061898;28;20584;-79
2022/07/15 03:25:49;;;;;;;4.78;1.60;;;23.60;61.50;;;;;;5049815;28;20202;-78
2022/07/15 03:28:20;;;;;;;4.90;1.55;;;23.60;61.60;;;;;;5064492;28;20198;-80
2022/07/15 03:30:48;;;;;;;10.13;2.10;;;23.60;61.70;;;;;;5059046;28;20181;-79
2022/07/15 03:33:17;;;;;;;7.28;1.70;;;23.60;61.80;;;;;;5060292;28;20213;-80
2022/07/15 03:35:45;;;;;;;5.68;1.48;;;23.60;61.80;;;;;;5062405;28;20213;-80
2022/07/15 03:38:15;;;;;;;5.95;1.38;;;23.60;61.80;;;;;;5063725;28;20334;-80
2022/07/15 03:40:44;;;;;;;6.38;2.00;;;23.60;61.80;;;;;;5052748;28;20221;-80
2022/07/15 03:43:13;;;;;;;7.45;1.45;;;23.70;62.70;;;;;;5063991;28;20198;-80
2022/07/15 03:45:42;;;;;;;7.88;1.83;;;23.70;61.80;;;;;;5057618;28;20228;-80
2022/07/15 03:48:11;;;;;;;4.07;1.73;;;23.70;61.80;;;;;;5056140;28;20198;-79
2022/07/15 03:50:39;;;;;;;5.30;2.08;;;23.70;61.70;;;;;;5062308;28;20684;-80
2022/07/15 03:53:07;;;;;;;3.28;1.70;;;23.70;61.60;;;;;;5063514;28;20197;-80
2022/07/15 03:55:37;;;;;;;8.93;2.97;;;23.80;61.60;;;;;;5059779;28;20200;-79
2022/07/15 03:58:06;;;;;;;6.63;2.10;;;23.80;61.70;;;;;;5052773;28;20205;-80
2022/07/15 04:00:35;;;;;;;5.78;2.40;;;23.80;61.60;;;;;;5058632;28;20193;-79
2022/07/15 04:03:03;;;;;;;7.18;2.30;;;23.80;61.50;;;;;;5063757;28;20215;-79
2022/07/15 04:05:32;;;;;;;5.15;2.38;;;23.90;61.60;;;;;;5057743;28;20218;-80
2022/07/15 04:08:00;;;;;;;6.28;2.20;;;23.90;61.60;;;;;;5053801;28;20197;-79
2022/07/15 04:10:29;;;;;;;7.93;2.15;;;23.90;61.60;;;;;;5054889;28;20198;-80
2022/07/15 04:12:58;;;;;;;3.13;1.40;;;23.90;61.60;;;;;;5055603;28;20198;-81
2022/07/15 04:15:27;;;;;;;3.50;1.70;;;23.90;61.60;;;;;;5065160;28;20198;-81
2022/07/15 04:17:58;;;;;;;2.47;1.30;;;23.90;61.40;;;;;;5053389;28;20199;-80
2022/07/15 04:20:27;;;;;;;5.70;2.00;;;23.90;61.20;;;;;;5053565;28;20195;-82
2022/07/15 04:22:55;;;;;;;4.40;1.58;;;24.00;61.20;;;;;;5058537;28;20218;-82
2022/07/15 04:25:24;;;;;;;4.07;1.60;;;24.00;61.10;;;;;;5054977;28;20287;-80
2022/07/15 04:27:52;;;;;;;3.40;1.33;;;24.00;61.00;;;;;;5055250;28;20339;-80
2022/07/15 04:30:22;;;;;;;2.50;1.38;;;24.00;60.90;;;;;;5064115;28;20197;-80
2022/07/15 04:32:50;;;;;;;7.38;1.70;;;24.10;60.90;;;;;;5050371;28;20191;-80
2022/07/15 04:35:19;;;;;;;5.28;1.40;;;24.10;60.70;;;;;;5042821;28;20191;-81
2022/07/15 04:37:47;;;;;;;7.22;1.55;;;24.10;60.60;;;;;;5053266;28;20195;-80
2022/07/15 04:40:15;;;;;;;2.72;1.20;;;24.20;60.70;;;;;;5064638;28;20237;-80
2022/07/15 04:42:44;;;;;;;5.18;1.67;;;24.20;60.70;;;;;;5062366;28;20222;-80
2022/07/15 04:45:12;;;;;;;5.97;1.50;;;24.20;60.80;;;;;;5066052;28;20692;-80
2022/07/15 04:47:42;;;;;;;4.13;1.83;;;24.20;60.60;;;;;;5051919;28;20191;-81
2022/07/15 04:52:56;;;;;;;5.13;1.83;;;24.30;60.50;;;;;;5053228;28;20665;-80
2022/07/15 04:55:25;;;;;;;7.03;1.40;;;24.30;60.40;;;;;;5062702;28;20202;-81
2022/07/15 04:57:54;;;;;;;7.47;1.60;;;24.40;61.30;;;;;;5063907;28;20198;-80
2022/07/15 05:00:22;;;;;;;8.52;1.70;;;24.50;60.30;;;;;;5062533;28;20194;-80
2022/07/15 05:02:52;;;;;;;5.38;1.60;;;24.50;60.30;;;;;;5071913;28;20225;-80
2022/07/15 05:05:21;;;;;;;7.10;1.42;;;24.50;60.20;;;;;;5070657;28;20202;-81
2022/07/15 05:07:49;;;;;;;6.07;1.73;;;24.60;60.10;;;;;;5064222;28;20201;-80
2022/07/15 05:10:18;;;;;;;9.55;2.08;;;24.60;60.80;;;;;;5061930;28;20196;-82
2022/07/15 05:12:46;;;;;;;7.28;2.22;;;24.70;59.80;;;;;;5059311;28;20204;-79
2022/07/15 05:15:15;;;;;;;10.40;2.00;;;24.70;59.90;;;;;;5073847;28;20198;-79
2022/07/15 05:17:43;;;;;;;7.43;2.17;;;24.80;60.80;;;;;;5062231;28;20197;-79
2022/07/15 05:20:13;;;;;;;8.82;3.03;;;24.80;60.80;;;;;;5066617;28;20195;-80
2022/07/15 05:22:42;;;;;;;9.25;2.17;;;24.80;61.30;;;;;;5069975;28;20214;-80
2022/07/15 05:25:10;;;;;;;15.50;2.78;;;24.80;61.30;;;;;;5066759;28;20694;-80
2022/07/15 05:27:38;;;;;;;15.20;2.30;;;24.90;61.30;;;;;;5064875;28;20203;-80
2022/07/15 05:30:09;;;;;;;14.02;2.35;;;24.90;61.30;;;;;;5057793;28;20198;-80
2022/07/15 05:32:37;;;;;;;13.20;2.42;;;25.00;61.70;;;;;;5063593;28;20198;-79
2022/07/15 05:35:06;;;;;;;11.30;2.60;;;25.00;61.40;;;;;;5064477;28;20202;-82
2022/07/15 05:37:38;;;;;;;7.32;2.95;;;25.10;61.40;;;;;;5060430;28;20198;-79
2022/07/15 05:40:08;;;;;;;10.73;2.60;;;25.10;61.40;;;;;;5064584;28;20190;-81
2022/07/15 05:42:36;;;;;;;11.40;2.17;;;25.20;61.50;;;;;;5065049;28;20233;-80
2022/07/15 05:45:06;;;;;;;10.90;3.05;;;25.20;61.40;;;;;;5064216;28;20221;-79
2022/07/15 05:47:34;;;;;;;10.77;2.70;;;25.20;61.50;;;;;;5061015;28;20209;-82
2022/07/15 05:50:03;;;;;;;10.30;2.05;;;25.30;61.40;;;;;;5068891;28;20190;-80
2022/07/15 05:52:31;;;;;;;20.90;3.03;;;25.40;61.40;;;;;;5064376;28;20198;-80
2022/07/15 05:55:02;;;;;;;13.57;2.95;;;25.40;61.10;;;;;;5069253;28;20202;-81
2022/07/15 05:57:30;;;;;;;10.70;3.00;;;25.50;61.30;;;;;;5067545;28;20253;-79
2022/07/15 05:59:58;;;;;;;12.43;3.25;;;25.60;61.40;;;;;;5066352;28;20849;-78
2022/07/15 06:02:27;;;;;;;10.35;2.97;;;25.60;61.20;;;;;;5059403;28;20213;-80
2022/07/15 06:04:55;;;;;;;11.13;3.30;;;25.60;61.00;;;;;;5053131;28;20203;-80
2022/07/15 06:07:24;;;;;;;12.55;3.17;;;25.70;60.90;;;;;;5061715;28;20201;-78
2022/07/15 06:09:52;;;;;;;7.57;2.58;;;25.80;60.80;;;;;;5067216;28;20190;-80
2022/07/15 06:12:22;;;;;;;8.82;2.30;;;25.90;60.60;;;;;;5063113;28;20230;-82
2022/07/15 06:14:50;;;;;;;11.93;3.22;;;26.00;60.60;;;;;;5068227;28;20194;-80
2022/07/15 06:17:19;;;;;;;8.80;3.00;;;26.10;60.40;;;;;;5069381;28;20194;-79
2022/07/15 06:19:47;;;;;;;10.13;2.78;;;26.10;60.10;;;;;;5067038;28;20810;-80
2022/07/15 06:22:15;;;;;;;11.05;2.72;;;26.20;60.00;;;;;;5061462;28;20199;-79
2022/07/15 06:24:44;;;;;;;11.80;3.03;;;26.30;59.90;;;;;;5064215;28;20194;-79
2022/07/15 06:27:12;;;;;;;7.93;2.80;;;26.30;59.70;;;;;;5056093;28;20191;-80
2022/07/15 06:29:42;;;;;;;8.57;2.33;;;26.40;59.60;;;;;;5063449;28;20189;-80
2022/07/15 06:32:11;;;;;;;6.43;2.70;;;26.50;59.40;;;;;;5065806;28;20205;-79
2022/07/15 06:34:40;;;;;;;7.03;2.75;;;26.70;59.40;;;;;;5065421;28;20194;-79
2022/07/15 06:37:08;;;;;;;7.15;2.67;;;26.80;59.30;;;;;;5066898;28;20202;-79
2022/07/15 06:39:37;;;;;;;12.02;2.53;;;26.80;59.20;;;;;;5060841;28;20195;-78
2022/07/15 06:42:05;;;;;;;11.27;2.42;;;26.90;59.10;;;;;;5061862;28;20203;-79
2022/07/15 06:44:34;;;;;;;11.63;2.17;;;27.10;59.00;;;;;;5063820;28;20222;-78
2022/07/15 06:47:06;;;;;;;8.30;2.10;;;27.10;58.60;;;;;;5054567;28;20194;-79
2022/07/15 06:49:35;;;;;;;9.98;2.08;;;27.20;58.30;;;;;;5060075;28;20182;-79
2022/07/15 06:52:04;;;;;;;7.18;2.30;;;27.30;57.80;;;;;;5067248;28;20194;-79
2022/07/15 06:54:32;;;;;;;8.93;2.10;;;27.40;57.70;;;;;;5068041;28;20653;-78
2022/07/15 06:57:01;;;;;;;5.43;1.98;;;27.50;57.60;;;;;;5067709;28;20272;-78
2022/07/15 06:59:29;;;;;;;7.00;2.20;;;27.60;57.20;;;;;;5065163;28;20209;-78
2022/07/15 07:01:58;;;;;;;5.85;1.85;;;27.70;57.10;;;;;;5062449;28;20282;-78
2022/07/15 07:04:27;;;;;;;7.40;2.15;;;27.80;57.00;;;;;;5066822;28;20218;-79
2022/07/15 07:06:56;;;;;;;11.43;2.10;;;27.90;56.80;;;;;;5064351;28;20198;-78
2022/07/15 07:09:25;;;;;;;5.00;2.08;;;28.00;56.60;;;;;;5064686;28;20192;-79
2022/07/15 07:11:53;;;;;;;5.20;1.83;;;28.10;56.00;;;;;;5065062;28;20181;-78
2022/07/15 07:14:21;;;;;;;7.07;1.67;;;28.20;55.70;;;;;;5064198;28;20199;-79
2022/07/15 07:16:50;;;;;;;8.48;1.77;;;28.20;55.10;;;;;;5060906;28;20655;-78
2022/07/15 07:19:18;;;;;;;8.65;1.75;;;28.30;54.70;;;;;;5060086;28;20187;-77
2022/07/15 07:21:48;;;;;;;5.50;1.83;;;28.40;54.70;;;;;;5061035;28;20324;-77
2022/07/15 07:24:17;;;;;;;8.75;2.00;;;28.50;54.80;;;;;;5054232;28;20214;-77
2022/07/15 07:26:45;;;;;;;7.20;1.95;;;28.60;55.20;;;;;;5061241;28;20195;-77
2022/07/15 07:29:16;;;;;;;8.43;1.90;;;28.70;54.50;;;;;;5063036;28;20325;-77
2022/07/15 07:31:45;;;;;;;5.20;2.30;;;28.80;54.30;;;;;;5060235;28;20278;-80
2022/07/15 07:34:14;;;;;;;8.73;1.52;;;28.90;54.40;;;;;;5061051;28;20204;-78
2022/07/15 07:36:42;;;;;;;6.03;1.63;;;28.90;53.60;;;;;;5061051;28;20194;-79
2022/07/15 07:39:12;;;;;;;21.02;2.15;;;29.00;53.70;;;;;;5063457;28;20194;-77
2022/07/15 07:41:41;;;;;;;4.88;2.08;;;29.10;53.60;;;;;;5057720;28;20711;-78
2022/07/15 07:44:09;;;;;;;5.28;1.80;;;29.10;53.50;;;;;;5055684;28;21456;-79
2022/07/15 07:46:38;;;;;;;5.57;1.65;;;29.20;53.70;;;;;;5057679;28;20707;-78
2022/07/15 07:49:07;;;;;;;7.28;1.50;;;29.20;53.70;;;;;;5020503;28;20194;-77
2022/07/15 07:51:55;;;;;;;6.75;1.33;;;29.30;53.90;;;;;;5062864;28;20297;-77
2022/07/15 07:54:25;;;;;;;7.10;1.90;;;29.40;53.80;;;;;;5058708;28;20207;-78
2022/07/15 07:56:53;;;;;;;4.05;1.63;;;29.50;53.90;;;;;;5051420;28;20194;-79
2022/07/15 07:59:21;;;;;;;6.03;1.73;;;29.50;53.90;;;;;;5061689;28;20202;-78
2022/07/15 08:01:50;;;;;;;4.57;1.42;;;29.60;53.90;;;;;;5056246;28;20191;-78
2022/07/15 08:04:18;;;;;;;8.50;1.65;;;29.70;53.90;;;;;;5054423;28;20640;-79
2022/07/15 08:06:47;;;;;;;3.90;1.60;;;29.70;53.70;;;;;;5055176;28;20194;-78
2022/07/15 08:09:16;;;;;;;4.70;1.63;;;29.80;53.30;;;;;;5060312;28;20197;-77
2022/07/15 08:11:46;;;;;;;4.57;1.63;;;29.80;53.20;;;;;;5051440;28;20198;-80
2022/07/15 08:14:14;;;;;;;8.68;1.50;;;29.90;52.90;;;;;;5060290;28;20205;-80
2022/07/15 08:16:45;;;;;;;3.33;1.50;;;29.90;52.70;;;;;;5056766;28;20196;-77
2022/07/15 08:19:16;;;;;;;5.22;1.67;;;30.00;52.40;;;;;;5055386;28;20597;-79
2022/07/15 08:21:45;;;;;;;6.03;1.55;;;30.10;52.30;;;;;;5060862;28;20190;-78
2022/07/15 08:24:14;;;;;;;3.95;1.50;;;30.10;52.00;;;;;;5054501;28;20213;-79
2022/07/15 08:26:42;;;;;;;9.60;1.48;;;30.20;51.50;;;;;;5049899;28;20203;-79
2022/07/15 08:29:12;;;;;;;5.45;1.63;;;30.20;51.10;;;;;;5056467;28;20191;-80
2022/07/15 08:31:41;;;;;;;4.00;1.60;;;30.30;51.00;;;;;;5059481;28;20194;-78
2022/07/15 08:34:09;;;;;;;4.43;1.40;;;30.40;51.10;;;;;;5058651;28;20198;-79
2022/07/15 08:36:38;;;;;;;8.40;1.30;;;30.40;50.50;;;;;;5058862;28;20195;-79
2022/07/15 08:39:06;;;;;;;6.00;1.50;;;30.40;50.30;;;;;;5072344;28;20198;-79
2022/07/15 08:41:36;;;;;;;3.67;1.35;;;30.50;50.60;;;;;;5060321;28;20247;-80
2022/07/15 08:44:06;;;;;;;4.20;1.33;;;30.60;50.40;;;;;;5053406;28;20230;-79
2022/07/15 08:46:37;;;;;;;3.53;1.45;;;30.60;50.20;;;;;;5061460;28;20182;-80
2022/07/15 08:49:08;;;;;;;5.20;1.77;;;30.70;50.00;;;;;;5054925;28;20726;-77
2022/07/15 08:51:38;;;;;;;5.70;1.40;;;30.80;49.60;;;;;;5061317;28;20659;-79
2022/07/15 08:54:07;;;;;;;5.82;1.20;;;30.80;49.50;;;;;;5061909;28;20225;-80
2022/07/15 08:56:37;;;;;;;5.00;1.58;;;30.90;49.30;;;;;;5060889;28;20204;-78
2022/07/15 08:59:07;;;;;;;4.85;1.30;;;30.90;48.60;;;;;;5059674;28;20233;-81
2022/07/15 09:01:43;;;;;;;2.95;1.40;;;31.00;48.10;;;;;;5052975;28;20281;-79
2022/07/15 09:04:13;;;;;;;2.72;1.20;;;31.00;47.70;;;;;;5067054;28;20292;-77
2022/07/15 09:06:43;;;;;;;4.53;1.30;;;31.10;47.40;;;;;;5051709;28;20194;-77
2022/07/15 09:09:28;;;;;;;5.82;1.70;;;31.10;47.20;;;;;;5051231;28;20602;-76
2022/07/15 09:12:00;;;;;;;3.85;1.55;;;31.20;47.60;;;;;;5058717;28;20186;-79
2022/07/15 09:14:42;;;;;;;3.05;1.23;;;31.20;47.50;;;;;;5059201;28;20190;-79
2022/07/15 09:17:24;;;;;;;5.40;1.15;;;31.30;47.40;;;;;;5057011;28;20193;-78
2022/07/15 09:20:07;;;;;;;3.88;1.40;;;31.40;47.30;;;;;;5054134;28;20184;-79
2022/07/15 09:22:50;;;;;;;3.95;1.15;;;31.40;47.40;;;;;;5058433;28;20189;-79
2022/07/15 09:25:19;;;;;;;5.53;1.83;;;31.50;47.60;;;;;;5063341;28;20288;-78
2022/07/15 09:27:48;;;;;;;2.95;1.17;;;31.50;47.40;;;;;;5060080;28;20836;-78
2022/07/15 09:36:03;;;;;;;5.60;1.30;;;31.80;46.50;;;;;;5052409;28;20317;-77
2022/07/15 09:38:34;;;;;;;1.80;1.17;;;31.80;46.40;;;;;;5054473;28;20183;-77
2022/07/15 09:41:04;;;;;;;2.00;1.10;;;31.80;46.00;;;;;;5064308;28;20715;-78
2022/07/15 09:43:44;;;;;;;3.95;1.50;;;31.90;46.10;;;;;;5063567;28;20195;-76
2022/07/15 09:46:12;;;;;;;2.67;1.10;;;32.00;45.80;;;;;;5015984;28;20192;-79
2022/07/15 09:48:43;;;;;;;6.35;1.27;;;32.00;46.00;;;;;;5023589;28;20191;-78
2022/07/15 09:51:12;;;;;;;1.98;1.10;;;32.10;45.30;;;;;;5022708;28;20191;-79
2022/07/15 09:53:41;;;;;;;9.13;1.45;;;32.20;45.00;;;;;;5018232;28;20613;-77
2022/07/15 09:56:11;;;;;;;5.55;1.02;;;32.20;43.90;;;;;;5026225;28;20295;-77
2022/07/15 09:58:41;;;;;;;2.17;0.95;;;32.30;44.20;;;;;;5022692;28;20194;-78
2022/07/15 10:01:11;;;;;;;3.78;1.23;;;32.30;44.30;;;;;;5025253;28;20211;-78
2022/07/15 10:03:42;;;;;;;4.13;0.90;;;32.40;43.90;;;;;;5020774;28;20203;-78
2022/07/15 10:06:15;;;;;;;6.60;1.17;;;32.40;44.00;;;;;;5023531;28;20219;-82
2022/07/15 10:08:48;;;;;;;5.38;1.00;;;32.50;43.50;;;;;;5005926;28;20192;-77
2022/07/15 10:11:17;;;;;;;1.67;0.80;;;32.60;43.00;;;;;;5016672;28;20204;-78
2022/07/15 10:14:09;;;;;;;1.30;1.02;;;32.60;43.40;;;;;;5023212;28;20843;-79
2022/07/15 10:17:09;;;;;;;4.00;1.08;;;32.70;43.50;;;;;;5015739;28;20196;-79
2022/07/15 10:20:11;;;;;;;2.03;1.02;;;32.70;43.20;;;;;;5021989;28;20192;-78
2022/07/15 10:22:55;;;;;;;10.13;1.35;;;32.90;43.10;;;;;;5020048;28;20198;-77
2022/07/15 10:25:40;;;;;;;3.35;1.40;;;33.00;43.20;;;;;;5022988;28;20230;-80
2022/07/15 10:28:14;;;;;;;1.58;1.02;;;33.00;42.50;;;;;;5025503;28;20214;-77
2022/07/15 10:30:43;;;;;;;3.60;1.10;;;33.00;42.10;;;;;;5020398;28;20193;-78
2022/07/15 10:33:16;;;;;;;3.45;1.00;;;33.10;42.30;;;;;;5007146;28;20207;-78
2022/07/15 10:35:48;;;;;;;1.98;1.00;;;33.10;42.80;;;;;;5023021;28;20278;-77
2022/07/15 10:38:32;;;;;;;2.22;1.00;;;33.20;43.10;;;;;;5018704;28;20192;-76
2022/07/15 10:41:06;;;;;;;1.67;0.80;;;33.30;43.10;;;;;;5017694;28;20196;-77
2022/07/15 10:43:49;;;;;;;2.13;1.10;;;33.40;43.30;;;;;;5015826;28;20926;-78
2022/07/15 10:46:27;;;;;;;2.65;0.88;;;33.40;43.10;;;;;;5020394;28;20605;-78
2022/07/15 10:49:30;;;;;;;4.22;1.33;;;33.50;43.00;;;;;;5025007;28;20262;-77
2022/07/15 10:52:16;;;;;;;2.75;1.23;;;33.50;42.70;;;;;;5008185;28;20253;-78
2022/07/15 10:54:48;;;;;;;2.38;1.23;;;33.60;42.70;;;;;;5012997;28;20203;-79
2022/07/15 10:57:19;;;;;;;2.45;1.20;;;33.60;42.10;;;;;;5012862;28;20208;-77
2022/07/15 10:59:53;;;;;;;1.45;1.00;;;33.60;42.20;;;;;;5019523;28;20412;-78
2022/07/15 11:02:24;;;;;;;2.33;0.90;;;33.70;42.00;;;;;;5015967;28;20657;-78
2022/07/15 11:05:14;;;;;;;0.93;0.70;;;33.70;41.40;;;;;;5016929;28;20270;-78
2022/07/15 11:07:42;;;;;;;2.15;0.93;;;33.80;41.20;;;;;;5022424;28;20192;-78
2022/07/15 11:10:25;;;;;;;2.83;0.93;;;33.80;40.90;;;;;;5020500;28;20207;-80
2022/07/15 11:13:08;;;;;;;3.03;0.95;;;33.80;40.00;;;;;;5023544;28;20192;-77
2022/07/15 11:15:36;;;;;;;2.55;0.95;;;34.00;39.80;;;;;;5013777;28;20305;-78
2022/07/15 11:18:05;;;;;;;1.70;1.00;;;33.90;39.70;;;;;;5019324;28;20218;-79
2022/07/15 11:20:39;;;;;;;4.03;0.90;;;34.00;39.90;;;;;;5017954;28;20192;-78
2022/07/15 11:23:08;;;;;;;1.60;0.88;;;34.10;39.90;;;;;;5026195;28;20199;-76
2022/07/15 11:25:40;;;;;;;1.52;0.88;;;34.10;39.40;;;;;;5028661;28;20226;-76
2022/07/15 11:28:11;;;;;;;5.93;1.00;;;34.10;39.50;;;;;;5019201;28;20184;-80
2022/07/15 11:30:42;;;;;;;0.82;0.73;;;34.20;39.80;;;;;;5011167;28;20196;-79
2022/07/15 11:33:14;;;;;;;2.42;0.90;;;34.20;39.70;;;;;;5019300;28;20199;-78
2022/07/15 11:35:46;;;;;;;1.60;0.70;;;34.30;40.30;;;;;;5012843;28;20198;-77
2022/07/15 11:38:15;;;;;;;1.90;0.80;;;34.30;37.60;;;;;;5014872;28;20184;-80
2022/07/15 11:46:21;;;;;;;1.08;0.90;;;34.40;36.60;;;;;;5012711;28;20215;-82
2022/07/15 11:48:51;;;;;;;1.65;0.70;;;34.40;36.60;;;;;;5023647;28;20208;-79
2022/07/15 11:51:27;;;;;;;1.70;0.90;;;34.50;37.00;;;;;;5015634;28;20195;-79
2022/07/15 11:53:56;;;;;;;1.65;1.00;;;34.50;37.20;;;;;;5018496;28;20847;-79
2022/07/15 11:56:26;;;;;;;3.53;1.10;;;34.50;36.60;;;;;;5020876;28;20207;-80
2022/07/15 11:58:57;;;;;;;2.33;0.93;;;34.50;36.90;;;;;;5023636;28;20618;-79
2022/07/15 12:01:28;;;;;;;2.55;1.15;;;34.50;37.10;;;;;;5015398;28;20207;-78
2022/07/15 12:03:58;;;;;;;1.77;0.90;;;34.60;37.70;;;;;;5027698;28;20195;-79
2022/07/15 12:06:30;;;;;;;1.10;0.80;;;34.60;37.10;;;;;;5009584;28;20220;-80
2022/07/15 12:09:00;;;;;;;1.58;0.80;;;34.60;37.40;;;;;;5023850;28;20303;-79
2022/07/15 12:11:32;;;;;;;1.45;0.80;;;34.70;37.60;;;;;;5018309;28;20205;-80
2022/07/15 12:14:03;;;;;;;2.65;0.98;;;34.70;37.70;;;;;;5025529;28;20188;-82
2022/07/15 12:16:34;;;;;;;3.10;1.00;;;34.80;37.60;;;;;;5025503;28;20191;-81
2022/07/15 12:19:07;;;;;;;1.38;0.90;;;34.80;37.00;;;;;;5024468;28;20282;-78
2022/07/15 12:21:37;;;;;;;1.98;0.95;;;34.90;37.30;;;;;;5020865;28;20188;-78
2022/07/15 12:24:09;;;;;;;1.08;0.75;;;34.90;37.30;;;;;;5026175;28;20957;-79
2022/07/15 12:26:41;;;;;;;5.10;1.10;;;34.90;37.30;;;;;;5027293;28;20703;-81
2022/07/15 12:29:12;;;;;;;2.85;0.90;;;34.90;37.40;;;;;;5028016;28;20676;-78
2022/07/15 12:31:43;;;;;;;1.17;0.80;;;35.00;37.40;;;;;;5022813;28;20200;-78
2022/07/15 12:34:12;;;;;;;2.10;0.88;;;35.10;37.60;;;;;;5024402;28;20433;-80
2022/07/15 12:36:40;;;;;;;2.92;1.02;;;35.10;37.40;;;;;;5022827;28;20192;-76
2022/07/15 12:39:15;;;;;;;2.90;1.10;;;35.30;37.70;;;;;;5012015;28;20192;-79
2022/07/15 12:42:01;;;;;;;0.98;0.70;;;35.40;37.80;;;;;;5018331;28;20255;-79
2022/07/15 12:44:32;;;;;;;4.00;0.77;;;35.50;37.60;;;;;;5033168;28;20222;-79
2022/07/15 12:47:01;;;;;;;1.88;1.13;;;35.50;37.60;;;;;;5057205;28;20203;-79
2022/07/15 12:49:41;;;;;;;4.15;1.10;;;35.60;37.40;;;;;;5054400;28;20199;-80
2022/07/15 12:52:24;;;;;;;4.93;1.25;;;35.60;36.50;;;;;;5061094;28;20187;-79
2022/07/15 12:54:54;;;;;;;2.40;0.98;;;35.60;36.40;;;;;;5048823;28;20194;-78
2022/07/15 12:57:28;;;;;;;5.47;1.10;;;35.60;36.80;;;;;;5067584;28;20198;-84
2022/07/15 12:59:59;;;;;;;2.42;0.90;;;35.60;36.80;;;;;;5058828;28;20823;-78
2022/07/15 13:02:29;;;;;;;5.18;1.50;;;35.60;37.10;;;;;;5066052;28;20281;-78
2022/07/15 13:04:57;;;;;;;1.40;0.80;;;35.60;37.40;;;;;;5059109;28;20190;-77
2022/07/15 13:07:26;;;;;;;3.75;0.98;;;35.70;37.30;;;;;;5060504;28;20225;-79
2022/07/15 13:09:54;;;;;;;1.75;0.90;;;35.70;37.30;;;;;;5062799;28;20278;-78
2022/07/15 13:12:24;;;;;;;1.73;1.00;;;35.70;37.30;;;;;;5061753;28;20194;-77
2022/07/15 13:14:52;;;;;;;1.92;1.00;;;35.70;37.30;;;;;;5059815;28;20196;-78
2022/07/15 13:17:20;;;;;;;3.35;0.90;;;35.80;37.40;;;;;;5059459;28;20258;-77
2022/07/15 13:19:49;;;;;;;1.55;1.02;;;35.90;37.60;;;;;;5064758;28;20230;-77